Time;durP1;ratioP1;P1;durP2;ratioP2;P2;SDS_P1;SDS_P2;PMS_P1;PMS_P2;Temp;Humidity;BMP_temperature;BMP_pressure;BME280_temperature;BME280_humidity;BME280_pressure;Samples;Min_cycle;Max_cycle;Signal;HPM_P1;HPM_P2
2022/11/04 00:02:04;;;;;;;18.63;9.10;;;;;;;7.28;66.25;99841.91;5010500;28;20064;-73
2022/11/04 00:04:30;;;;;;;19.95;8.50;;;;;;;7.37;65.50;99835.63;5010795;28;20069;-73
2022/11/04 00:06:57;;;;;;;22.40;8.80;;;;;;;7.34;65.95;99841.28;5010043;28;20416;-72
2022/11/04 00:09:26;;;;;;;26.15;8.73;;;;;;;7.41;65.34;99836.97;5009540;28;20050;-73
2022/11/04 00:14:38;;;;;;;19.83;8.38;;;;;;;7.43;65.17;99824.31;5010039;28;20053;-73
2022/11/04 00:17:23;;;;;;;26.80;8.45;;;;;;;7.41;65.22;99834.28;5010228;28;20048;-73
2022/11/04 00:33:24;;;;;;;21.33;8.07;;;;;;;7.34;65.77;99826.09;5009383;28;20041;-73
2022/11/04 00:33:48;;;;;;;20.45;7.93;;;;;;;7.18;66.36;99824.19;5002124;28;20042;-73
2022/11/04 00:36:15;;;;;;;21.35;8.05;;;;;;;7.31;65.85;99821.06;5012732;28;20054;-73
2022/11/04 00:38:41;;;;;;;22.75;8.48;;;;;;;7.32;66.11;99816.56;5013722;28;20060;-73
2022/11/04 00:41:27;;;;;;;19.48;8.32;;;;;;;7.19;66.77;99817.03;5013352;28;20081;-73
2022/11/04 00:43:56;;;;;;;17.10;8.40;;;;;;;7.25;66.53;99828.88;5014489;28;20457;-72
2022/11/04 00:46:23;;;;;;;19.90;8.18;;;;;;;7.22;66.58;99821.19;5013482;28;20068;-73
2022/11/04 00:48:49;;;;;;;20.98;8.57;;;;;;;7.18;66.72;99826.84;5013600;28;20042;-73
2022/11/04 00:51:17;;;;;;;21.80;7.70;;;;;;;7.29;66.00;99819.56;5003665;28;20513;-73
2022/11/04 00:53:43;;;;;;;17.88;8.23;;;;;;;7.21;66.69;99819.53;5013803;28;20050;-72
2022/11/04 00:56:09;;;;;;;22.20;8.30;;;;;;;7.21;66.64;99815.03;5001067;28;20407;-71
2022/11/04 00:58:36;;;;;;;33.15;8.93;;;;;;;7.03;67.38;99817.78;4994482;28;20053;-73
2022/11/04 01:01:10;;;;;;;24.98;9.25;;;;;;;6.99;67.43;99808.44;4994368;28;20053;-73
2022/11/04 01:03:37;;;;;;;20.27;9.85;;;;;;;6.88;68.07;99796.22;4994232;28;20054;-73
2022/11/04 01:06:04;;;;;;;24.95;9.27;;;;;;;7.04;67.53;99800.78;4994298;28;20046;-73
2022/11/04 01:08:31;;;;;;;21.42;8.98;;;;;;;7.01;67.67;99794.94;4993945;28;20042;-73
2022/11/04 01:11:01;;;;;;;24.42;9.32;;;;;;;6.96;67.50;99798.09;4994342;28;20046;-73
2022/11/04 01:13:27;;;;;;;21.77;9.48;;;;;;;7.10;67.38;99789.47;4993813;28;20042;-72
2022/11/04 01:16:00;;;;;;;23.27;9.40;;;;;;;6.95;67.73;99794.59;4993729;28;20043;-73
2022/11/04 01:18:27;;;;;;;16.08;8.73;;;;;;;7.03;67.57;99785.78;4994563;28;20049;-73
2022/11/04 01:20:54;;;;;;;24.80;10.00;;;;;;;6.81;68.53;99789.03;4994868;28;20046;-73
2022/11/04 01:23:20;;;;;;;25.85;9.18;;;;;;;6.85;68.78;99777.88;4994122;28;20062;-73
2022/11/04 01:25:46;;;;;;;22.65;9.95;;;;;;;6.79;68.60;99773.19;4994568;28;20508;-73
2022/11/04 01:28:13;;;;;;;21.27;9.05;;;;;;;6.86;68.60;99784.88;4994548;28;20050;-73
2022/11/04 01:30:39;;;;;;;25.23;9.68;;;;;;;6.80;68.92;99784.66;4993842;28;20050;-73
2022/11/04 01:33:06;;;;;;;20.92;9.80;;;;;;;6.95;68.58;99786.59;4994164;28;20421;-73
2022/11/04 01:35:32;;;;;;;21.38;9.40;;;;;;;6.97;68.44;99777.59;4994647;28;20042;-73
2022/11/04 01:37:59;;;;;;;19.15;8.93;;;;;;;7.08;68.22;99774.63;4992806;28;20422;-73
2022/11/04 01:40:26;;;;;;;26.85;9.90;;;;;;;7.00;68.39;99777.28;4994572;28;20050;-73
2022/11/04 01:42:52;;;;;;;22.02;9.52;;;;;;;6.96;68.54;99776.75;4994411;28;20042;-73
2022/11/04 01:45:20;;;;;;;27.48;9.75;;;;;;;6.75;69.08;99789.66;4994471;28;20046;-73
2022/11/04 01:48:04;;;;;;;18.60;9.43;;;;;;;6.42;70.54;99786.78;4992244;28;20405;-73
2022/11/04 01:50:33;;;;;;;19.88;10.23;;;;;;;6.22;71.78;99797.59;4993519;28;20038;-73
2022/11/04 01:53:05;;;;;;;22.50;10.85;;;;;;;6.68;69.98;99792.13;4994119;28;20042;-72
2022/11/04 01:55:35;;;;;;;21.20;10.23;;;;;;;6.59;70.42;99785.06;5002551;28;20052;-72
2022/11/04 01:58:09;;;;;;;21.95;10.15;;;;;;;6.65;70.28;99777.25;5014923;28;20065;-73
2022/11/04 02:00:40;;;;;;;25.45;10.35;;;;;;;6.80;69.93;99776.66;5013336;28;20046;-73
2022/11/04 02:03:16;;;;;;;25.33;11.40;;;;;;;6.46;70.42;99775.66;5014557;28;20050;-73
2022/11/04 02:09:31;;;;;;;30.88;10.00;;;;;;;6.78;69.89;99760.03;5011970;28;20041;-72
2022/11/04 02:14:45;;;;;;;31.05;10.95;;;;;;;6.92;69.30;99752.25;5013106;28;20044;-72
2022/11/04 02:17:51;;;;;;;19.38;9.85;;;;;;;7.08;68.74;99750.63;5012567;28;20046;-72
2022/11/04 02:20:55;;;;;;;24.88;10.20;;;;;;;6.60;70.73;99750.28;4994119;28;20046;-73
2022/11/04 02:23:42;;;;;;;21.75;9.60;;;;;;;6.63;70.30;99749.94;4942580;28;20074;-73
2022/11/04 02:26:17;;;;;;;23.80;10.15;;;;;;;6.67;70.64;99751.31;5012276;28;20045;-73
2022/11/04 02:29:02;;;;;;;26.60;11.27;;;;;;;6.63;70.76;99749.94;5012325;28;20049;-73
2022/11/04 02:31:48;;;;;;;22.00;10.32;;;;;;;7.02;69.33;99740.63;5012252;28;20053;-72
2022/11/04 02:34:33;;;;;;;23.15;10.60;;;;;;;7.01;69.41;99739.75;5011960;28;20424;-72
2022/11/04 02:37:17;;;;;;;22.92;10.95;;;;;;;6.98;69.05;99737.44;5011362;28;20046;-72
2022/11/04 02:39:46;;;;;;;23.30;10.68;;;;;;;7.13;68.67;99738.50;5012209;28;20045;-72
2022/11/04 02:42:30;;;;;;;21.48;9.82;;;;;;;6.90;69.54;99740.88;5012194;28;20104;-73
2022/11/04 02:45:25;;;;;;;19.52;10.63;;;;;;;7.16;68.71;99732.00;5009393;28;20137;-73
2022/11/04 02:48:15;;;;;;;20.58;9.88;;;;;;;7.11;68.71;99723.63;4985747;28;20050;-73
2022/11/04 02:51:21;;;;;;;21.77;9.75;;;;;;;7.00;69.33;99731.94;4998188;28;20050;-73
2022/11/04 02:54:03;;;;;;;27.70;10.25;;;;;;;7.10;68.71;99725.47;5011438;28;20501;-73
2022/11/04 02:56:34;;;;;;;23.20;10.57;;;;;;;6.89;69.33;99719.75;4986353;28;20052;-73
2022/11/04 02:59:13;;;;;;;19.63;9.80;;;;;;;6.86;69.88;99718.22;4991397;28;20046;-73
2022/11/04 03:01:43;;;;;;;22.52;9.75;;;;;;;6.88;69.43;99716.25;4991589;28;20050;-72
2022/11/04 03:04:14;;;;;;;20.23;9.87;;;;;;;7.02;69.50;99714.78;4992230;28;20070;-73
2022/11/04 03:06:46;;;;;;;23.83;10.68;;;;;;;7.06;69.07;99721.47;4992374;28;20050;-72
2022/11/04 03:09:14;;;;;;;21.75;10.23;;;;;;;6.59;71.31;99731.75;4990273;28;20502;-72
2022/11/04 03:11:44;;;;;;;23.35;10.27;;;;;;;6.14;72.94;99738.94;4992100;28;20054;-72
2022/11/04 03:14:21;;;;;;;27.73;11.00;;;;;;;6.55;71.47;99730.41;4987442;28;20054;-72
2022/11/04 03:16:51;;;;;;;28.60;11.50;;;;;;;6.52;71.66;99722.72;4991826;28;20046;-73
2022/11/04 03:19:38;;;;;;;33.97;10.43;;;;;;;6.83;70.64;99718.53;4991052;28;20138;-72
2022/11/04 03:22:11;;;;;;;23.98;10.70;;;;;;;6.89;70.35;99714.41;4991952;28;20049;-72
2022/11/04 03:24:38;;;;;;;27.27;10.25;;;;;;;7.00;70.17;99705.28;4991825;28;20046;-72
2022/11/04 03:28:00;;;;;;;27.15;10.45;;;;;;;6.71;70.84;99712.66;4991643;28;20050;-72
2022/11/04 03:30:35;;;;;;;25.95;10.73;;;;;;;6.99;70.42;99706.28;4938317;28;20043;-73
2022/11/04 03:33:27;;;;;;;27.50;10.82;;;;;;;7.00;69.91;99727.44;4991146;28;20062;-72
2022/11/04 03:35:54;;;;;;;24.33;10.45;;;;;;;6.57;71.68;99747.09;4980640;28;20049;-72
2022/11/04 03:38:21;;;;;;;27.38;10.65;;;;;;;6.35;72.93;99759.91;4990869;28;20498;-72
2022/11/04 03:40:48;;;;;;;28.42;11.48;;;;;;;6.34;72.75;99762.75;4991932;28;20046;-72
2022/11/04 03:43:24;;;;;;;27.98;11.70;;;;;;;6.05;74.47;99769.19;4991453;28;20054;-72
2022/11/04 03:45:51;;;;;;;31.50;11.50;;;;;;;5.90;74.30;99765.38;4991752;28;20498;-73
2022/11/04 03:48:19;;;;;;;23.30;11.55;;;;;;;6.45;72.93;99763.31;4990623;28;20047;-73
2022/11/04 03:50:47;;;;;;;25.77;10.73;;;;;;;6.51;72.52;99761.03;4991288;28;20050;-73
2022/11/04 03:53:22;;;;;;;26.67;11.27;;;;;;;6.73;71.57;99760.47;4991179;28;20057;-72
2022/11/04 03:56:10;;;;;;;25.77;11.10;;;;;;;6.48;73.00;99756.84;4991241;28;20046;-73
2022/11/04 03:59:06;;;;;;;26.75;11.98;;;;;;;6.71;72.21;99750.00;4990442;28;20053;-72
2022/11/04 04:01:51;;;;;;;20.63;10.75;;;;;;;6.82;71.65;99745.38;4991225;28;20034;-73
2022/11/04 04:04:24;;;;;;;31.17;11.63;;;;;;;6.58;71.95;99760.22;4991030;28;20109;-72
2022/11/04 04:06:55;;;;;;;19.30;10.30;;;;;;;6.76;72.09;99751.34;4990776;28;20053;-73
2022/11/04 04:09:34;;;;;;;17.67;7.85;;;;;;;6.87;71.69;99743.03;4991212;28;20053;-73
2022/11/04 04:12:10;;;;;;;26.52;11.77;;;;;;;6.93;71.02;99751.25;4991610;28;20046;-73
2022/11/04 04:14:48;;;;;;;20.75;10.60;;;;;;;6.94;71.47;99744.06;4989970;28;20057;-72
2022/11/04 04:17:18;;;;;;;22.40;10.57;;;;;;;6.73;71.92;99754.31;4991179;28;20046;-72
2022/11/04 04:19:55;;;;;;;29.67;12.05;;;;;;;6.64;72.30;99761.44;4990909;28;20046;-72
2022/11/04 04:22:27;;;;;;;23.00;11.15;;;;;;;6.55;72.17;99760.56;4990833;28;20061;-72
2022/11/04 04:27:43;;;;;;;25.65;11.10;;;;;;;6.70;72.46;99747.47;4990758;28;20050;-73
2022/11/04 04:30:15;;;;;;;25.55;11.48;;;;;;;6.76;72.04;99751.34;4990103;28;20065;-73
2022/11/04 04:32:54;;;;;;;23.05;11.25;;;;;;;6.59;73.12;99745.91;4991313;28;20486;-73
2022/11/04 04:35:41;;;;;;;30.63;10.80;;;;;;;6.78;72.30;99746.69;4990816;28;20054;-73
2022/11/04 04:47:01;;;;;;;23.75;11.18;;;;;;;6.89;71.35;99731.22;4990005;28;20428;-73
2022/11/04 04:49:33;;;;;;;25.33;10.88;;;;;;;6.87;71.81;99732.38;4990501;28;20129;-73
2022/11/04 04:52:03;;;;;;;27.67;12.00;;;;;;;6.96;71.18;99736.75;4990177;28;20081;-73
2022/11/04 04:54:29;;;;;;;27.15;11.45;;;;;;;6.97;71.51;99746.41;4990837;28;20042;-73
2022/11/04 04:56:55;;;;;;;21.45;10.25;;;;;;;6.86;71.71;99749.38;5008872;28;20391;-72
2022/11/04 04:59:22;;;;;;;28.40;12.10;;;;;;;6.82;72.15;99753.38;5009971;28;20424;-73
2022/11/04 05:01:48;;;;;;;29.23;11.98;;;;;;;6.99;71.74;99755.09;5009674;28;20501;-73
2022/11/04 05:04:15;;;;;;;26.63;11.15;;;;;;;7.22;70.70;99751.84;5009657;28;20108;-73
2022/11/04 05:06:42;;;;;;;26.17;11.52;;;;;;;7.08;71.37;99746.13;5009900;28;20045;-72
2022/11/04 05:09:08;;;;;;;27.15;10.38;;;;;;;7.09;71.02;99750.47;5008439;28;20391;-72
2022/11/04 05:11:34;;;;;;;27.30;11.90;;;;;;;7.01;71.62;99760.25;5010046;28;20045;-73
2022/11/04 05:14:01;;;;;;;26.42;11.82;;;;;;;6.90;72.11;99748.06;5000675;28;20050;-73
2022/11/04 05:16:28;;;;;;;25.45;11.10;;;;;;;6.96;71.80;99755.44;5009075;28;20046;-73
2022/11/04 05:18:54;;;;;;;26.42;12.57;;;;;;;7.22;71.40;99757.19;5009861;28;20038;-73
2022/11/04 05:21:21;;;;;;;25.27;11.57;;;;;;;7.37;70.59;99755.56;5010859;28;20057;-73
2022/11/04 05:23:47;;;;;;;20.38;11.10;;;;;;;7.54;70.01;99756.44;5013480;28;20497;-73
2022/11/04 05:26:14;;;;;;;30.05;11.90;;;;;;;7.60;69.43;99755.75;5013184;28;20501;-73
2022/11/04 05:28:40;;;;;;;19.95;11.05;;;;;;;7.62;69.04;99754.59;5013740;28;20053;-73
2022/11/04 05:31:07;;;;;;;24.20;11.88;;;;;;;7.31;70.28;99769.56;5014050;28;20052;-73
2022/11/04 05:33:33;;;;;;;25.63;11.90;;;;;;;7.65;69.37;99764.13;5013635;28;20100;-73
2022/11/04 05:36:12;;;;;;;23.15;11.27;;;;;;;7.73;68.77;99771.31;5012779;28;20046;-73
2022/11/04 05:38:39;;;;;;;24.75;11.57;;;;;;;7.52;69.76;99787.78;5013284;28;20080;-72
2022/11/04 05:41:07;;;;;;;22.65;12.13;;;;;;;7.46;70.50;99799.94;5013704;28;20050;-73
2022/11/04 05:43:34;;;;;;;25.60;12.30;;;;;;;6.94;72.54;99795.59;5013518;28;20123;-73
2022/11/04 05:46:01;;;;;;;24.15;12.15;;;;;;;7.01;72.91;99802.94;4995925;28;20049;-73
2022/11/04 05:48:28;;;;;;;25.27;12.85;;;;;;;6.66;73.50;99792.25;5012409;28;21035;-73
2022/11/04 05:50:54;;;;;;;26.52;13.05;;;;;;;6.98;73.11;99796.13;5012532;28;20049;-72
2022/11/04 05:53:21;;;;;;;27.48;12.93;;;;;;;7.03;72.76;99801.78;5012280;28;20056;-73
2022/11/04 05:55:47;;;;;;;31.10;12.43;;;;;;;7.17;72.86;99803.84;5003643;28;20050;-73
2022/11/04 05:58:14;;;;;;;29.73;12.55;;;;;;;7.17;73.20;99795.84;4993658;28;20058;-73
2022/11/04 06:00:41;;;;;;;24.02;12.63;;;;;;;7.36;72.21;99807.25;4992626;28;20042;-72
2022/11/04 06:03:08;;;;;;;26.65;13.57;;;;;;;7.38;71.80;99806.09;4994086;28;20122;-73
2022/11/04 06:05:40;;;;;;;27.75;13.63;;;;;;;7.27;71.96;99814.41;4993200;28;20050;-72
2022/11/04 06:08:07;;;;;;;29.92;15.07;;;;;;;7.49;71.63;99812.13;4993394;28;20050;-73
2022/11/04 06:10:34;;;;;;;35.15;17.08;;;;;;;7.07;73.20;99821.81;4992896;28;20057;-73
2022/11/04 06:13:00;;;;;;;30.10;13.45;;;;;;;7.19;72.65;99823.22;4992917;28;20054;-72
2022/11/04 06:15:26;;;;;;;27.17;13.60;;;;;;;6.62;75.17;99824.72;4992940;28;20050;-72
2022/11/04 06:17:53;;;;;;;29.52;14.65;;;;;;;6.95;74.06;99829.25;4992603;28;20054;-72
2022/11/04 06:20:19;;;;;;;32.78;14.38;;;;;;;7.22;73.25;99835.38;4993186;28;20050;-72
2022/11/04 06:22:46;;;;;;;29.00;15.35;;;;;;;6.93;74.06;99841.91;4992315;28;20053;-72
2022/11/04 06:25:12;;;;;;;27.40;15.05;;;;;;;6.86;74.62;99840.03;4992107;28;20050;-72
2022/11/04 06:27:39;;;;;;;28.98;15.18;;;;;;;7.02;74.40;99837.47;4993900;28;20043;-72
2022/11/04 06:30:06;;;;;;;39.28;16.98;;;;;;;7.25;73.73;99834.22;4993226;28;20046;-72
2022/11/04 06:32:32;;;;;;;30.63;17.45;;;;;;;7.31;73.28;99834.41;4991331;28;20065;-73
2022/11/04 06:34:59;;;;;;;29.73;16.30;;;;;;;7.26;73.57;99843.91;4992780;28;20046;-72
2022/11/04 06:37:25;;;;;;;31.00;16.42;;;;;;;7.35;73.27;99845.59;4992875;28;20058;-73
2022/11/04 06:39:52;;;;;;;28.45;15.65;;;;;;;7.34;73.36;99841.28;4992729;28;20053;-73
2022/11/04 06:42:18;;;;;;;33.90;16.50;;;;;;;7.30;73.54;99851.44;4991368;28;20043;-73
2022/11/04 06:44:45;;;;;;;26.85;16.20;;;;;;;7.23;73.93;99861.06;4992528;28;20458;-73
2022/11/04 06:47:11;;;;;;;31.80;15.90;;;;;;;7.18;74.39;99858.84;4992334;28;20130;-69
2022/11/04 06:49:38;;;;;;;28.05;15.80;;;;;;;7.31;74.18;99857.59;4993195;28;20129;-73
2022/11/04 06:52:05;;;;;;;28.30;17.27;;;;;;;7.36;73.80;99873.94;4992786;28;20050;-73
2022/11/04 06:54:31;;;;;;;32.95;16.65;;;;;;;7.48;73.64;99877.19;4992614;28;20050;-73
2022/11/04 06:56:58;;;;;;;28.55;16.80;;;;;;;7.70;72.76;99870.41;5011590;28;20045;-73
2022/11/04 06:59:24;;;;;;;27.60;17.38;;;;;;;7.69;73.29;99871.41;5011750;28;20421;-73
2022/11/04 07:01:51;;;;;;;28.60;17.25;;;;;;;7.76;73.05;99878.59;5012092;28;20064;-72
2022/11/04 07:04:18;;;;;;;37.40;19.75;;;;;;;7.63;73.84;99875.56;5011639;28;20054;-73
2022/11/04 07:06:44;;;;;;;79.45;22.73;;;;;;;7.64;74.09;99875.41;5012667;28;20053;-72
2022/11/04 07:09:12;;;;;;;82.88;23.17;;;;;;;7.76;74.40;99872.44;5014897;28;20057;-74
2022/11/04 07:11:40;;;;;;;60.40;21.88;;;;;;;7.95;73.54;99868.66;5018609;28;20046;-74
2022/11/04 07:14:07;;;;;;;33.30;19.40;;;;;;;8.00;73.53;99872.53;5013712;28;20041;-74
2022/11/04 07:16:34;;;;;;;35.22;20.75;;;;;;;7.98;73.86;99871.84;5011130;28;20129;-73
2022/11/04 07:19:01;;;;;;;30.42;19.40;;;;;;;7.89;74.19;99868.34;5010984;28;20048;-74
2022/11/04 07:21:28;;;;;;;37.28;19.52;;;;;;;7.89;74.90;99864.81;5012946;28;20046;-74
2022/11/04 07:23:54;;;;;;;36.03;19.85;;;;;;;7.84;75.52;99864.47;5013684;28;20528;-74
2022/11/04 07:26:21;;;;;;;38.70;20.73;;;;;;;7.54;76.38;99858.69;5011996;28;20061;-74
2022/11/04 07:28:47;;;;;;;33.30;19.77;;;;;;;7.97;75.42;99856.81;5011378;28;20095;-73
2022/11/04 07:31:15;;;;;;;31.45;19.08;;;;;;;8.31;74.79;99862.03;5015119;28;20046;-73
2022/11/04 07:33:42;;;;;;;34.72;19.73;;;;;;;8.13;74.89;99867.53;5025031;28;20054;-73
2022/11/04 07:36:12;;;;;;;33.03;20.55;;;;;;;8.17;75.62;99873.38;5031405;28;20057;-74
2022/11/04 07:38:38;;;;;;;35.75;22.60;;;;;;;8.35;74.56;99867.88;5031817;28;20172;-74
2022/11/04 07:41:05;;;;;;;37.30;23.08;;;;;;;8.47;74.50;99873.72;5029932;28;20050;-73
2022/11/04 07:43:32;;;;;;;35.13;21.42;;;;;;;8.75;73.65;99864.38;5032299;28;20085;-73
2022/11/04 07:46:04;;;;;;;30.80;19.35;;;;;;;8.87;73.06;99858.66;5033280;28;20045;-73
2022/11/04 07:48:31;;;;;;;30.35;18.02;;;;;;;9.08;72.63;99854.41;5032445;28;20042;-73
2022/11/04 07:50:59;;;;;;;35.10;18.40;;;;;;;9.08;72.79;99849.06;5033497;28;20026;-73
2022/11/04 07:53:26;;;;;;;32.33;18.92;;;;;;;9.22;72.60;99846.69;5032378;28;20036;-73
2022/11/04 07:55:53;;;;;;;31.27;17.25;;;;;;;9.39;71.80;99853.66;5023749;28;20037;-72
2022/11/04 07:58:21;;;;;;;26.70;17.05;;;;;;;9.42;71.70;99847.97;5012874;28;20069;-73
2022/11/04 08:00:47;;;;;;;30.10;17.50;;;;;;;9.40;71.46;99852.66;5014269;28;20050;-73
2022/11/04 08:03:14;;;;;;;30.33;16.25;;;;;;;9.32;71.66;99850.03;5014562;28;20050;-72
2022/11/04 08:05:41;;;;;;;29.95;16.92;;;;;;;9.40;71.69;99857.19;5014081;28;20042;-73
2022/11/04 08:08:07;;;;;;;26.60;15.85;;;;;;;9.48;71.73;99852.63;5012572;28;20027;-73
2022/11/04 08:10:34;;;;;;;26.33;15.73;;;;;;;9.54;71.56;99843.06;5010669;28;20050;-74
2022/11/04 08:13:01;;;;;;;29.23;17.02;;;;;;;9.50;71.69;99845.25;5009897;28;20042;-74
2022/11/04 08:15:28;;;;;;;34.42;18.80;;;;;;;9.28;72.49;99843.34;4998322;28;20053;-72
2022/11/04 08:17:54;;;;;;;27.10;16.00;;;;;;;9.42;72.05;99853.31;5005644;28;20056;-72
2022/11/04 08:20:20;;;;;;;26.42;16.80;;;;;;;9.43;72.34;99868.38;4998916;28;20054;-73
2022/11/04 08:22:47;;;;;;;27.00;15.00;;;;;;;9.39;72.71;99867.06;5010074;28;20037;-72
2022/11/04 08:25:13;;;;;;;25.98;15.88;;;;;;;9.08;73.94;99878.50;5000211;28;20054;-74
2022/11/04 08:27:40;;;;;;;27.20;17.20;;;;;;;9.31;73.61;99870.59;5007990;28;20042;-73
2022/11/04 08:30:07;;;;;;;26.50;15.55;;;;;;;9.49;72.69;99867.69;5008989;28;20041;-74
2022/11/04 08:32:34;;;;;;;22.25;15.10;;;;;;;9.30;73.29;99868.94;5006597;28;20129;-74
2022/11/04 08:35:00;;;;;;;26.27;16.58;;;;;;;9.51;72.84;99872.88;5008058;28;20129;-74
2022/11/04 08:37:27;;;;;;;27.10;15.95;;;;;;;9.54;72.60;99880.53;5007660;28;20064;-74
2022/11/04 08:39:53;;;;;;;26.30;16.67;;;;;;;9.13;74.64;99887.84;5004570;28;20073;-74
2022/11/04 08:42:19;;;;;;;29.20;15.75;;;;;;;9.31;74.14;99891.19;5005650;28;20051;-74
2022/11/04 08:44:50;;;;;;;26.05;15.77;;;;;;;9.07;74.69;99898.22;5009308;28;20046;-72
2022/11/04 08:47:17;;;;;;;24.92;14.52;;;;;;;9.47;73.92;99895.63;5002453;28;20055;-73
2022/11/04 08:49:43;;;;;;;21.77;14.57;;;;;;;9.26;74.11;99888.16;4977486;28;20521;-74
2022/11/04 08:52:09;;;;;;;19.95;11.90;;;;;;;9.14;74.15;99895.72;4995795;28;20054;-75
2022/11/04 08:54:36;;;;;;;25.05;13.38;;;;;;;9.12;74.74;99902.22;4995721;28;20122;-72
2022/11/04 08:57:02;;;;;;;19.10;12.25;;;;;;;9.33;74.25;99894.50;4977683;28;20046;-74
2022/11/04 08:59:29;;;;;;;22.13;12.38;;;;;;;9.19;74.59;99908.56;4977163;28;20062;-72
2022/11/04 09:01:55;;;;;;;25.15;12.80;;;;;;;9.16;75.17;99908.91;4977164;28;20050;-73
2022/11/04 09:04:22;;;;;;;21.55;12.63;;;;;;;9.27;74.77;99901.41;4977422;28;20047;-72
2022/11/04 09:06:50;;;;;;;22.77;11.70;;;;;;;9.45;74.05;99886.94;4977900;28;20070;-72
2022/11/04 09:09:17;;;;;;;25.50;12.85;;;;;;;9.50;74.14;99869.34;4977884;28;20127;-72
2022/11/04 09:11:45;;;;;;;22.50;12.75;;;;;;;9.53;73.89;99871.69;4975581;28;20050;-73
2022/11/04 09:14:12;;;;;;;19.13;11.25;;;;;;;9.28;74.82;99868.28;4976634;28;20069;-73
2022/11/04 09:16:39;;;;;;;22.20;12.82;;;;;;;9.33;74.77;99862.38;4972751;28;20058;-73
2022/11/04 09:19:06;;;;;;;23.27;12.85;;;;;;;9.42;74.30;99850.66;4976447;28;20050;-74
2022/11/04 09:21:33;;;;;;;18.25;10.90;;;;;;;9.51;74.12;99848.78;4976783;28;20124;-72
2022/11/04 09:24:00;;;;;;;22.17;11.35;;;;;;;9.43;73.96;99849.63;4975975;28;20049;-72
2022/11/04 09:26:27;;;;;;;19.55;11.40;;;;;;;9.51;73.74;99854.97;4974925;28;20050;-74
2022/11/04 09:28:55;;;;;;;20.63;11.70;;;;;;;9.48;73.88;99859.84;4974705;28;20050;-73
2022/11/04 09:31:21;;;;;;;17.00;10.90;;;;;;;9.34;74.19;99850.69;4975794;28;20507;-73
2022/11/04 09:33:49;;;;;;;18.88;12.05;;;;;;;9.53;73.89;99863.63;4975795;28;20525;-74
2022/11/04 09:36:16;;;;;;;18.90;11.25;;;;;;;9.39;74.15;99859.03;4974503;28;20133;-74
2022/11/04 09:38:43;;;;;;;18.98;11.55;;;;;;;9.30;74.30;99858.25;4974368;28;20059;-75
2022/11/04 09:41:22;;;;;;;26.67;12.27;;;;;;;9.30;74.21;99865.41;4974834;28;20225;-74
2022/11/04 09:44:07;;;;;;;20.05;10.63;;;;;;;9.60;73.73;99857.59;4975090;28;20074;-73
2022/11/04 09:46:36;;;;;;;21.15;11.45;;;;;;;9.48;73.62;99860.66;4973884;28;20487;-73
2022/11/04 09:49:06;;;;;;;21.58;11.00;;;;;;;9.85;72.81;99858.28;4973736;28;20050;-73
2022/11/04 09:51:33;;;;;;;16.40;11.27;;;;;;;9.80;72.70;99854.31;4974289;28;20053;-73
2022/11/04 09:54:39;;;;;;;19.70;10.70;;;;;;;9.50;73.36;99850.59;4974750;28;20043;-71
2022/11/04 09:57:16;;;;;;;16.55;10.85;;;;;;;9.57;72.70;99854.25;4975175;28;20043;-74
2022/11/04 09:59:43;;;;;;;16.27;10.88;;;;;;;9.68;72.54;99870.94;4975086;28;20046;-73
2022/11/04 10:02:10;;;;;;;25.92;11.63;;;;;;;9.76;72.73;99885.13;4974741;28;20057;-73
2022/11/04 10:04:49;;;;;;;15.90;11.07;;;;;;;9.40;73.20;99895.47;4975106;28;20073;-73
2022/11/04 10:07:25;;;;;;;17.33;11.20;;;;;;;9.54;72.73;99908.19;4974765;28;20411;-74
2022/11/04 10:10:13;;;;;;;17.13;11.02;;;;;;;9.44;73.08;99904.00;4973923;28;20046;-73
2022/11/04 10:13:00;;;;;;;19.88;11.45;;;;;;;9.78;71.85;99909.88;4972491;28;20050;-74
2022/11/04 10:16:00;;;;;;;18.52;10.98;;;;;;;9.71;72.02;99898.19;4973619;28;20122;-74
2022/11/04 10:18:54;;;;;;;19.17;11.23;;;;;;;9.57;72.10;99891.72;4973554;28;20042;-74
2022/11/04 10:21:29;;;;;;;16.02;10.93;;;;;;;9.43;72.55;99897.81;4970407;28;20479;-74
2022/11/04 10:24:14;;;;;;;17.20;9.88;;;;;;;9.53;72.22;99905.66;4972884;28;20057;-74
2022/11/04 10:26:43;;;;;;;19.15;10.48;;;;;;;9.84;71.11;99915.56;4973103;28;20397;-73
2022/11/04 10:29:22;;;;;;;18.00;10.85;;;;;;;9.52;71.79;99915.53;4972766;28;20065;-73
2022/11/04 10:31:51;;;;;;;18.42;11.10;;;;;;;9.94;70.60;99921.53;4973574;28;20054;-75
2022/11/04 10:34:49;;;;;;;16.00;10.10;;;;;;;9.54;71.66;99918.03;4973679;28;20046;-74
2022/11/04 10:37:16;;;;;;;17.05;9.52;;;;;;;9.79;70.68;99933.00;4975009;28;25110;-73
2022/11/04 10:39:45;;;;;;;16.20;10.55;;;;;;;9.71;70.57;99927.66;4975581;28;20054;-75
2022/11/04 10:42:23;;;;;;;19.38;10.32;;;;;;;9.56;71.21;99927.56;4976072;28;20437;-73
2022/11/04 10:44:51;;;;;;;10.55;9.02;;;;;;;9.82;70.48;99925.59;4975939;28;20047;-74
2022/11/04 10:47:33;;;;;;;14.68;9.90;;;;;;;9.81;70.42;99911.38;4974901;28;20054;-75
2022/11/04 10:50:20;;;;;;;14.80;10.40;;;;;;;9.82;70.43;99902.34;4976058;28;20042;-74
2022/11/04 10:53:13;;;;;;;17.73;10.20;;;;;;;9.44;72.06;99909.34;4952856;28;20118;-74
2022/11/04 10:55:50;;;;;;;15.10;9.73;;;;;;;9.36;72.08;99909.41;4991900;28;20048;-73
2022/11/04 10:58:26;;;;;;;15.48;9.55;;;;;;;9.68;71.00;99919.16;5015216;28;20046;-73
2022/11/04 11:00:53;;;;;;;20.77;13.48;;;;;;;9.62;70.65;99925.22;5017963;28;20046;-71
2022/11/04 11:03:33;;;;;;;19.00;12.98;;;;;;;9.80;70.55;99939.19;5026685;28;20046;-71
2022/11/04 11:06:39;;;;;;;16.55;11.98;;;;;;;9.84;70.54;99935.16;5026843;28;20049;-70
2022/11/04 11:09:14;;;;;;;15.57;10.05;;;;;;;9.84;70.71;99940.50;4965968;29;20055;-71
2022/11/04 11:11:50;;;;;;;16.92;10.15;;;;;;;9.84;70.47;99951.22;4965897;29;20050;-73
2022/11/04 11:14:29;;;;;;;17.00;10.63;;;;;;;9.60;70.91;99964.72;4965885;29;25166;-72
2022/11/04 11:17:03;;;;;;;18.63;9.13;;;;;;;9.79;70.42;99967.00;4966191;29;20057;-72
2022/11/04 11:19:45;;;;;;;19.30;10.13;;;;;;;9.94;70.35;99962.56;4964233;28;20067;-72
2022/11/04 11:22:27;;;;;;;19.98;10.07;;;;;;;10.04;69.91;99960.50;4964558;29;20058;-72
2022/11/04 11:25:11;;;;;;;13.95;10.13;;;;;;;10.07;69.91;99963.84;4964164;29;20049;-70
2022/11/04 11:27:38;;;;;;;17.40;10.30;;;;;;;9.94;70.51;99975.13;4944951;29;20051;-71
2022/11/04 11:30:05;;;;;;;11.77;9.35;;;;;;;9.98;70.16;99982.63;4944418;29;20058;-72
2022/11/04 11:32:42;;;;;;;13.15;8.95;;;;;;;10.04;69.97;99989.16;4943518;29;20048;-71
2022/11/04 11:35:20;;;;;;;14.55;8.85;;;;;;;9.93;69.89;99986.88;4942550;29;20070;-72
2022/11/04 11:37:47;;;;;;;20.77;9.93;;;;;;;9.63;71.21;99994.66;4943635;29;20048;-72
2022/11/04 11:40:30;;;;;;;13.85;9.25;;;;;;;9.55;71.15;99995.53;4969495;28;20046;-71
2022/11/04 11:42:59;;;;;;;15.68;9.82;;;;;;;9.81;70.66;99994.44;4980781;28;20049;-72
2022/11/04 11:45:27;;;;;;;15.20;9.30;;;;;;;9.95;70.22;99985.66;4979135;28;20070;-72
2022/11/04 11:47:55;;;;;;;16.30;9.48;;;;;;;9.91;70.47;99983.50;4976424;28;20049;-71
2022/11/04 11:50:31;;;;;;;14.43;9.50;;;;;;;10.03;69.81;99985.66;4975301;28;20046;-72
2022/11/04 11:53:25;;;;;;;14.93;9.30;;;;;;;10.09;69.81;99991.31;4977195;28;20053;-71
2022/11/04 11:56:16;;;;;;;14.48;9.43;;;;;;;10.20;69.62;99981.03;4966119;28;20058;-72
2022/11/04 11:58:51;;;;;;;12.88;9.15;;;;;;;10.00;70.35;99974.44;4962189;29;20047;-72
2022/11/04 12:01:49;;;;;;;12.38;8.60;;;;;;;10.20;69.62;99977.50;4961951;29;20054;-73
2022/11/04 12:04:19;;;;;;;13.82;10.27;;;;;;;10.19;69.58;99975.84;4973335;28;20061;-72
2022/11/04 12:07:19;;;;;;;15.27;9.43;;;;;;;10.24;69.13;99978.84;5004535;28;20046;-70
2022/11/04 12:10:05;;;;;;;16.83;10.45;;;;;;;10.26;69.25;99971.44;5004363;28;20050;-70
2022/11/04 12:12:52;;;;;;;20.55;14.70;;;;;;;10.20;69.57;99964.09;5007339;28;20050;-72
2022/11/04 12:15:45;;;;;;;17.23;10.25;;;;;;;10.28;69.17;99966.75;5007155;28;20054;-73
2022/11/04 12:18:31;;;;;;;15.90;9.82;;;;;;;10.23;69.22;99961.06;5003544;28;20065;-71
2022/11/04 12:21:15;;;;;;;20.08;11.23;;;;;;;10.11;69.55;99965.16;5007802;28;20113;-72
2022/11/04 12:23:54;;;;;;;12.52;9.70;;;;;;;10.17;69.29;99964.47;5006044;28;20114;-72